615VGS Twitter

615VGS Facebook

Staff Login


Staff who require login details should contact the MCO.

Join 615 VGS

 

 

615 VGS Partner

bigatmo

Course Photos 2013

Upcoming Events

No events

KY Aviation Wx

[source: ADDS]
METAR
EGKB 010920Z 20009KT 9999 SCT020 19/13 Q1010 =
TAF
TAF EGKB 010804Z 0109/0118 20007KT 9999 SCT020 =
SR / SS: 04:24 / 19:46 UTC (Sunrise/Sunset 2014-08-01)